Time;durP1;ratioP1;P1;durP2;ratioP2;P2;SDS_P1;SDS_P2;PMS_P1;PMS_P2;Temp;Humidity;BMP_temperature;BMP_pressure;BME280_temperature;BME280_humidity;BME280_pressure;Samples;Min_cycle;Max_cycle;Signal;HPM_P1;HPM_P2
2022/07/26 00:00:46;;;;;;;14.70;2.50;;;19.40;99.90;;;;;;4833341;29;38024;-58
2022/07/26 00:03:14;;;;;;;12.30;2.80;;;19.40;99.90;;;;;;4832419;29;37735;-58
2022/07/26 00:05:42;;;;;;;14.13;3.22;;;19.40;99.90;;;;;;4833160;29;37632;-58
2022/07/26 00:08:12;;;;;;;12.50;2.70;;;19.40;99.90;;;;;;4833262;29;37348;-58
2022/07/26 00:10:45;;;;;;;13.80;2.90;;;19.40;99.90;;;;;;4834449;29;37500;-67
2022/07/26 00:13:13;;;;;;;13.18;2.42;;;19.40;99.90;;;;;;4834579;29;40044;-67
2022/07/26 00:15:40;;;;;;;15.30;3.45;;;19.40;99.90;;;;;;4831840;29;36532;-58
2022/07/26 00:18:08;;;;;;;13.80;3.00;;;19.40;99.90;;;;;;4834116;29;36826;-67
2022/07/26 00:20:35;;;;;;;13.43;2.72;;;19.40;99.90;;;;;;4833760;29;37979;-67
2022/07/26 00:23:03;;;;;;;11.18;2.95;;;19.40;99.90;;;;;;4833590;29;38093;-67
2022/07/26 00:25:30;;;;;;;17.13;2.92;;;19.40;99.90;;;;;;4832273;29;37880;-67
2022/07/26 00:27:59;;;;;;;8.65;2.17;;;19.40;99.90;;;;;;4833585;29;36629;-67
2022/07/26 00:30:27;;;;;;;11.60;2.63;;;19.40;99.90;;;;;;4832771;29;37320;-58
2022/07/26 00:32:54;;;;;;;10.77;2.83;;;19.40;99.90;;;;;;4834021;29;39061;-58
2022/07/26 00:35:21;;;;;;;13.23;2.63;;;19.40;99.90;;;;;;4833525;29;36541;-58
2022/07/26 00:37:49;;;;;;;9.90;2.35;;;19.40;99.90;;;;;;4833578;29;36588;-58
2022/07/26 00:40:17;;;;;;;7.82;2.50;;;19.30;99.90;;;;;;4834176;29;37416;-58
2022/07/26 00:42:44;;;;;;;13.27;3.10;;;19.40;99.90;;;;;;4832801;29;36794;-58
2022/07/26 00:45:14;;;;;;;12.23;2.47;;;19.30;99.90;;;;;;4833869;29;37930;-59
2022/07/26 00:47:42;;;;;;;9.55;2.22;;;19.30;99.90;;;;;;4833404;29;36400;-67
2022/07/26 00:50:12;;;;;;;8.38;2.13;;;19.30;99.90;;;;;;4834458;29;38375;-67
2022/07/26 00:52:42;;;;;;;9.13;2.33;;;19.30;99.90;;;;;;4833761;29;38165;-67
2022/07/26 00:55:09;;;;;;;8.50;2.20;;;19.30;99.90;;;;;;4832380;29;37113;-67
2022/07/26 00:57:38;;;;;;;10.85;2.63;;;19.40;99.90;;;;;;4834014;29;37303;-66
2022/07/26 01:00:10;;;;;;;12.48;2.92;;;19.30;99.90;;;;;;4832928;29;38491;-59
2022/07/26 01:02:39;;;;;;;7.55;1.70;;;19.30;99.90;;;;;;4833118;29;36502;-58
2022/07/26 01:05:07;;;;;;;8.77;2.17;;;19.30;99.90;;;;;;4833526;29;37577;-58
2022/07/26 01:07:35;;;;;;;6.55;1.90;;;19.40;99.90;;;;;;4833420;29;36868;-58
2022/07/26 01:10:05;;;;;;;8.77;1.95;;;19.30;99.90;;;;;;4834254;29;39555;-58
2022/07/26 01:12:32;;;;;;;5.80;1.80;;;19.40;99.90;;;;;;4833532;29;36907;-67
2022/07/26 01:14:59;;;;;;;10.55;1.85;;;19.30;99.90;;;;;;4832884;29;39819;-58
2022/07/26 01:17:27;;;;;;;7.50;2.15;;;19.30;99.90;;;;;;4834051;29;36792;-58
2022/07/26 01:19:55;;;;;;;8.35;1.80;;;19.30;99.90;;;;;;4833135;29;37604;-58
2022/07/26 01:22:24;;;;;;;7.35;1.90;;;19.30;99.90;;;;;;4833850;29;39039;-66
2022/07/26 01:24:51;;;;;;;7.78;2.15;;;19.30;99.90;;;;;;4830464;29;37555;-67
2022/07/26 01:27:19;;;;;;;6.00;1.92;;;19.30;99.90;;;;;;4832709;29;37036;-66
2022/07/26 01:29:47;;;;;;;8.93;1.98;;;19.30;99.90;;;;;;4832929;29;37638;-66
2022/07/26 01:32:14;;;;;;;6.00;1.58;;;19.30;99.90;;;;;;4832568;29;38763;-67
2022/07/26 01:34:41;;;;;;;7.85;2.00;;;19.30;99.90;;;;;;4833175;29;37826;-58
2022/07/26 01:37:09;;;;;;;4.18;1.55;;;19.30;99.90;;;;;;4833725;29;37502;-58
2022/07/26 01:39:37;;;;;;;6.10;1.77;;;19.30;99.90;;;;;;4832998;29;36246;-58
2022/07/26 01:42:05;;;;;;;6.15;2.05;;;19.20;99.90;;;;;;4832361;29;37168;-67
2022/07/26 01:44:32;;;;;;;5.20;1.50;;;19.30;99.90;;;;;;4831792;29;37198;-59
2022/07/26 01:47:00;;;;;;;6.35;1.83;;;19.20;99.90;;;;;;4832161;29;38377;-58
2022/07/26 01:49:27;;;;;;;4.32;1.75;;;19.20;99.90;;;;;;4833786;29;38106;-58
2022/07/26 01:51:54;;;;;;;10.65;2.22;;;19.20;99.90;;;;;;4833161;29;39859;-67
2022/07/26 01:54:22;;;;;;;6.55;2.35;;;19.30;99.90;;;;;;4831221;29;38454;-67
2022/07/26 01:56:50;;;;;;;4.68;1.55;;;19.30;99.90;;;;;;4833796;29;36598;-66
2022/07/26 01:59:18;;;;;;;9.07;1.90;;;19.20;99.90;;;;;;4835073;29;38268;-67
2022/07/26 02:01:45;;;;;;;7.95;1.50;;;19.20;99.90;;;;;;4836023;29;38002;-66
2022/07/26 02:04:57;;;;;;;8.02;2.10;;;19.20;99.90;;;;;;4835740;29;36617;-58
2022/07/26 02:07:00;;;;;;;5.80;1.70;;;19.10;99.90;;;;;;4836903;29;37364;-67
2022/07/26 02:09:27;;;;;;;5.05;1.92;;;19.20;99.90;;;;;;4835771;29;36342;-59
2022/07/26 02:11:56;;;;;;;6.50;1.85;;;19.20;99.90;;;;;;4835820;29;38086;-58
2022/07/26 02:14:23;;;;;;;7.68;1.90;;;19.20;99.90;;;;;;4835522;29;40980;-58
2022/07/26 02:16:55;;;;;;;8.32;2.40;;;19.20;99.90;;;;;;4836379;29;37982;-58
2022/07/26 02:19:22;;;;;;;7.32;2.03;;;19.20;99.90;;;;;;4835938;29;37932;-67
2022/07/26 02:21:49;;;;;;;5.63;1.80;;;19.20;99.90;;;;;;4836418;29;38692;-67
2022/07/26 02:24:17;;;;;;;6.85;2.15;;;19.20;99.90;;;;;;4835305;29;37766;-66
2022/07/26 02:26:44;;;;;;;9.52;1.98;;;19.20;99.90;;;;;;4836265;29;36469;-66
2022/07/26 02:29:12;;;;;;;4.80;1.67;;;19.20;99.90;;;;;;4835252;29;39978;-58
2022/07/26 02:31:40;;;;;;;6.68;1.30;;;19.10;99.90;;;;;;4835508;29;38538;-66
2022/07/26 02:34:07;;;;;;;4.53;1.17;;;19.00;99.90;;;;;;4834463;29;38333;-66
2022/07/26 02:36:35;;;;;;;4.10;1.38;;;19.00;99.90;;;;;;4835516;29;35462;-57
2022/07/26 02:39:02;;;;;;;4.55;1.15;;;18.90;99.90;;;;;;4832726;29;38026;-58
2022/07/26 02:41:30;;;;;;;5.07;1.70;;;18.90;99.90;;;;;;4835006;29;37922;-58
2022/07/26 02:43:57;;;;;;;6.78;1.50;;;18.90;99.90;;;;;;4835576;29;37569;-66
2022/07/26 02:46:26;;;;;;;9.00;2.38;;;18.80;99.90;;;;;;4835643;29;36148;-67
2022/07/26 02:48:53;;;;;;;5.00;1.35;;;18.80;99.90;;;;;;4835042;29;37851;-66
2022/07/26 02:51:20;;;;;;;5.72;1.33;;;18.70;99.90;;;;;;4835813;29;38142;-66
2022/07/26 02:53:48;;;;;;;7.63;1.75;;;18.70;99.90;;;;;;4834416;29;37620;-58
2022/07/26 02:56:15;;;;;;;5.35;1.30;;;18.60;99.90;;;;;;4833345;29;36907;-58
2022/07/26 02:58:42;;;;;;;5.85;1.50;;;18.60;99.90;;;;;;4835487;29;38845;-66
2022/07/26 03:01:10;;;;;;;4.75;1.50;;;18.60;99.90;;;;;;4834933;29;37926;-67
2022/07/26 03:03:39;;;;;;;4.60;1.40;;;18.60;99.90;;;;;;4834929;29;37516;-66
2022/07/26 03:06:06;;;;;;;4.90;1.25;;;18.60;99.90;;;;;;4833630;29;38130;-58
2022/07/26 03:08:33;;;;;;;6.85;1.60;;;18.60;99.90;;;;;;4833560;29;37652;-58
2022/07/26 03:11:00;;;;;;;6.85;1.48;;;18.60;99.90;;;;;;4834773;29;37985;-66
2022/07/26 03:13:28;;;;;;;5.15;1.40;;;18.60;99.90;;;;;;4834605;29;37797;-66
2022/07/26 03:15:55;;;;;;;11.43;1.95;;;18.60;99.90;;;;;;4833315;29;35349;-67
2022/07/26 03:18:22;;;;;;;5.55;1.45;;;18.60;99.90;;;;;;4835791;29;37972;-58
2022/07/26 03:20:51;;;;;;;13.02;1.75;;;18.60;99.90;;;;;;4835612;29;38224;-58
2022/07/26 03:23:18;;;;;;;8.63;1.83;;;18.60;99.90;;;;;;4834407;29;37918;-66
2022/07/26 03:25:46;;;;;;;8.98;1.88;;;18.60;99.90;;;;;;4834531;29;36329;-58
2022/07/26 03:28:13;;;;;;;7.53;1.90;;;18.60;99.90;;;;;;4833638;29;39031;-58
2022/07/26 03:30:40;;;;;;;7.47;1.70;;;18.60;99.90;;;;;;4834700;29;37918;-67
2022/07/26 03:33:07;;;;;;;6.47;1.77;;;18.60;99.90;;;;;;4834350;29;37176;-66
2022/07/26 03:35:35;;;;;;;6.68;1.48;;;18.60;99.90;;;;;;4835001;29;36746;-66
2022/07/26 03:38:03;;;;;;;8.88;1.63;;;18.60;99.90;;;;;;4836149;29;36770;-67
2022/07/26 03:40:31;;;;;;;8.85;1.45;;;18.60;99.90;;;;;;4833407;29;37304;-66
2022/07/26 03:42:58;;;;;;;7.18;1.50;;;18.60;99.90;;;;;;4833657;29;38715;-67
2022/07/26 03:45:25;;;;;;;8.00;1.60;;;18.50;99.90;;;;;;4834745;29;37862;-67
2022/07/26 03:47:53;;;;;;;6.95;1.13;;;18.50;99.90;;;;;;4834943;29;39258;-66
2022/07/26 03:50:20;;;;;;;5.75;1.02;;;18.50;99.90;;;;;;4834155;29;38053;-66
2022/07/26 03:52:47;;;;;;;5.70;1.13;;;18.50;99.90;;;;;;4834235;29;37667;-66
2022/07/26 03:58:01;;;;;;;7.90;1.38;;;18.50;99.90;;;;;;4835135;29;38465;-66
2022/07/26 04:00:28;;;;;;;5.25;0.95;;;18.40;99.90;;;;;;4833915;29;38944;-66
2022/07/26 04:02:55;;;;;;;7.68;1.00;;;18.40;99.90;;;;;;4834721;29;37593;-67
2022/07/26 04:05:23;;;;;;;10.88;1.70;;;18.40;99.90;;;;;;4833639;29;36563;-66
2022/07/26 04:07:50;;;;;;;7.93;1.15;;;18.40;99.90;;;;;;4834611;29;36526;-66
2022/07/26 04:10:19;;;;;;;5.30;1.10;;;18.50;99.90;;;;;;4834561;29;39278;-66
2022/07/26 04:12:46;;;;;;;4.50;0.88;;;18.30;99.90;;;;;;4834857;29;37003;-58
2022/07/26 04:15:15;;;;;;;3.42;1.02;;;18.30;99.90;;;;;;4834128;29;37365;-67
2022/07/26 04:17:43;;;;;;;4.00;1.08;;;18.30;99.90;;;;;;4834608;29;37588;-66
2022/07/26 04:20:12;;;;;;;9.15;1.63;;;18.30;99.90;;;;;;4833492;29;38683;-67
2022/07/26 04:22:40;;;;;;;5.18;0.98;;;18.30;99.90;;;;;;4833512;29;38687;-66
2022/07/26 04:25:09;;;;;;;4.38;0.77;;;18.40;99.90;;;;;;4833358;29;37574;-58
2022/07/26 04:27:38;;;;;;;4.18;0.80;;;18.30;99.90;;;;;;4834848;29;37313;-58
2022/07/26 04:30:07;;;;;;;11.85;1.35;;;18.30;99.90;;;;;;4832880;29;39305;-58
2022/07/26 04:32:35;;;;;;;6.63;0.90;;;18.30;99.90;;;;;;4833752;29;37830;-58
2022/07/26 04:35:02;;;;;;;5.50;1.05;;;18.30;99.90;;;;;;4834686;29;36390;-58
2022/07/26 04:37:31;;;;;;;6.82;0.90;;;18.30;99.90;;;;;;4834196;29;38339;-58
2022/07/26 04:39:58;;;;;;;5.65;1.10;;;18.30;99.90;;;;;;4833916;29;38285;-58
2022/07/26 04:42:42;;;;;;;6.53;1.05;;;18.20;99.90;;;;;;4809443;29;20058;-66
2022/07/26 04:45:11;;;;;;;6.38;1.10;;;18.20;99.90;;;;;;4834124;29;35510;-67
2022/07/26 04:47:41;;;;;;;7.13;1.10;;;18.20;99.90;;;;;;4833824;29;37432;-58
2022/07/26 04:50:09;;;;;;;7.82;1.20;;;18.10;99.90;;;;;;4833891;29;38232;-58
2022/07/26 04:52:37;;;;;;;5.72;0.93;;;18.10;99.90;;;;;;4834038;29;38458;-67
2022/07/26 04:55:05;;;;;;;5.88;1.05;;;18.10;99.90;;;;;;4833395;29;36506;-66
2022/07/26 04:57:33;;;;;;;5.13;1.13;;;18.10;99.90;;;;;;4834936;29;37253;-66
2022/07/26 05:00:02;;;;;;;6.07;1.10;;;18.10;99.90;;;;;;4833711;29;37917;-66
2022/07/26 05:02:29;;;;;;;12.98;2.03;;;18.10;99.90;;;;;;4832569;29;38157;-66
2022/07/26 05:04:56;;;;;;;6.57;0.98;;;18.10;99.90;;;;;;4834682;29;39188;-58
2022/07/26 05:07:24;;;;;;;7.15;1.13;;;18.10;99.90;;;;;;4833685;29;38631;-58
2022/07/26 05:09:51;;;;;;;4.15;1.00;;;18.10;99.90;;;;;;4833321;29;36727;-58
2022/07/26 05:12:18;;;;;;;4.65;0.80;;;18.10;99.90;;;;;;4832992;29;37471;-58
2022/07/26 05:14:46;;;;;;;5.60;1.05;;;18.10;99.90;;;;;;4834066;29;35355;-66
2022/07/26 05:17:14;;;;;;;5.97;1.00;;;18.10;99.90;;;;;;4833385;29;39954;-66
2022/07/26 05:19:42;;;;;;;3.88;0.80;;;18.10;99.90;;;;;;4832653;29;38338;-58
2022/07/26 05:22:09;;;;;;;7.18;1.00;;;18.00;99.90;;;;;;4834076;29;37683;-58
2022/07/26 05:24:36;;;;;;;5.35;0.82;;;18.00;99.90;;;;;;4832469;29;35272;-58
2022/07/26 05:27:04;;;;;;;5.35;0.82;;;17.90;99.90;;;;;;4834381;29;37578;-58
2022/07/26 05:29:31;;;;;;;3.70;0.65;;;17.90;99.90;;;;;;4832440;29;38089;-66
2022/07/26 05:31:58;;;;;;;5.13;0.60;;;17.80;99.90;;;;;;4835011;29;37806;-67
2022/07/26 05:34:27;;;;;;;3.63;0.70;;;17.80;99.90;;;;;;4835830;29;36679;-66
2022/07/26 05:36:54;;;;;;;3.90;0.88;;;17.80;99.90;;;;;;4836708;29;38240;-66
2022/07/26 05:39:22;;;;;;;5.32;0.63;;;17.70;99.90;;;;;;4836227;29;38337;-66
2022/07/26 05:41:49;;;;;;;5.63;0.60;;;17.70;99.90;;;;;;4837156;29;38708;-58
2022/07/26 05:44:16;;;;;;;4.22;0.70;;;17.80;99.90;;;;;;4833230;29;36257;-66
2022/07/26 05:46:44;;;;;;;4.95;0.75;;;17.80;99.90;;;;;;4834817;29;36016;-66
2022/07/26 05:49:11;;;;;;;4.50;0.70;;;17.70;99.90;;;;;;4835615;29;38968;-67
2022/07/26 05:51:40;;;;;;;5.38;0.88;;;17.90;99.90;;;;;;4836448;29;37726;-67
2022/07/26 05:54:07;;;;;;;6.40;1.30;;;17.90;99.90;;;;;;4835742;29;38203;-58
2022/07/26 05:56:34;;;;;;;2.95;0.50;;;17.90;99.90;;;;;;4836690;29;36160;-58
2022/07/26 05:59:02;;;;;;;6.68;1.10;;;17.90;99.90;;;;;;4836301;29;38314;-58
2022/07/26 06:01:31;;;;;;;7.15;1.20;;;17.90;99.90;;;;;;4835289;29;37658;-67
2022/07/26 06:03:58;;;;;;;8.48;1.63;;;18.00;99.90;;;;;;4836088;29;36417;-58
2022/07/26 06:06:26;;;;;;;5.03;1.00;;;18.00;99.90;;;;;;4836545;29;38278;-66
2022/07/26 06:08:54;;;;;;;5.25;1.33;;;18.00;99.90;;;;;;4835666;29;38445;-58
2022/07/26 06:11:22;;;;;;;5.38;0.70;;;18.00;99.90;;;;;;4836358;29;37197;-58
2022/07/26 06:13:49;;;;;;;5.63;0.80;;;18.00;99.90;;;;;;4834615;29;36411;-58
2022/07/26 06:16:16;;;;;;;2.90;0.60;;;18.10;99.90;;;;;;4835790;29;36212;-66
2022/07/26 06:18:44;;;;;;;8.25;1.02;;;18.10;99.90;;;;;;4836643;29;38158;-58
2022/07/26 06:21:11;;;;;;;3.70;0.63;;;18.10;99.90;;;;;;4836409;29;37807;-66
2022/07/26 06:23:38;;;;;;;7.07;1.23;;;18.10;99.90;;;;;;4836027;29;36562;-67
2022/07/26 06:26:07;;;;;;;8.40;1.15;;;18.10;99.90;;;;;;4836068;29;37344;-66
2022/07/26 06:28:36;;;;;;;7.25;1.30;;;18.00;99.90;;;;;;4834726;29;38057;-66
2022/07/26 06:31:03;;;;;;;6.30;1.05;;;17.90;99.90;;;;;;4836256;29;39742;-66
2022/07/26 06:33:30;;;;;;;8.38;1.05;;;17.90;99.90;;;;;;4836020;29;37772;-57
2022/07/26 06:35:58;;;;;;;6.68;1.20;;;17.80;99.90;;;;;;4835298;29;37647;-58
2022/07/26 06:38:25;;;;;;;5.93;1.10;;;17.80;99.90;;;;;;4835641;29;37764;-66
2022/07/26 06:40:53;;;;;;;8.20;1.40;;;17.80;99.90;;;;;;4834833;29;37344;-66
2022/07/26 06:43:21;;;;;;;5.78;0.93;;;17.80;99.90;;;;;;4833370;29;37238;-66
2022/07/26 06:45:49;;;;;;;5.45;1.08;;;17.90;99.90;;;;;;4835859;29;37828;-66
2022/07/26 06:48:16;;;;;;;5.47;0.88;;;17.90;99.90;;;;;;4835215;29;38651;-65
2022/07/26 06:50:43;;;;;;;4.55;0.90;;;18.00;99.90;;;;;;4835374;29;38757;-58
2022/07/26 06:53:11;;;;;;;3.50;0.77;;;18.00;99.90;;;;;;4834090;29;36082;-58
2022/07/26 06:55:38;;;;;;;7.35;1.33;;;18.00;99.90;;;;;;4835040;29;37970;-58
2022/07/26 06:58:05;;;;;;;4.00;0.82;;;18.00;99.90;;;;;;4835671;29;38832;-66
2022/07/26 07:00:34;;;;;;;2.83;1.00;;;18.00;99.90;;;;;;4835290;29;39278;-66
2022/07/26 07:03:01;;;;;;;6.93;1.38;;;18.00;99.90;;;;;;4833763;29;36629;-66
2022/07/26 07:05:29;;;;;;;5.72;1.15;;;18.00;99.90;;;;;;4833966;29;37766;-58
2022/07/26 07:07:56;;;;;;;5.75;0.80;;;18.00;99.90;;;;;;4832796;29;39443;-66
2022/07/26 07:10:23;;;;;;;6.63;1.50;;;17.90;99.90;;;;;;4834468;29;37730;-66
2022/07/26 07:12:51;;;;;;;3.88;0.88;;;17.90;99.90;;;;;;4833884;29;36405;-66
2022/07/26 07:15:18;;;;;;;6.25;1.10;;;17.90;99.90;;;;;;4833678;29;37162;-58
2022/07/26 07:17:47;;;;;;;10.25;1.27;;;17.90;99.90;;;;;;4834760;29;39245;-66
2022/07/26 07:20:14;;;;;;;5.57;1.15;;;17.90;99.90;;;;;;4834437;29;37553;-66
2022/07/26 07:22:41;;;;;;;6.93;1.08;;;17.90;99.90;;;;;;4833112;29;37050;-67
2022/07/26 07:25:09;;;;;;;5.63;1.17;;;17.90;99.90;;;;;;4834987;29;39831;-66
2022/07/26 07:27:37;;;;;;;6.68;1.30;;;17.90;99.90;;;;;;4833455;29;37836;-66
2022/07/26 07:30:05;;;;;;;4.65;0.85;;;17.90;99.90;;;;;;4826033;29;37721;-58
2022/07/26 07:32:32;;;;;;;6.00;1.20;;;18.00;99.90;;;;;;4827543;29;37355;-66
2022/07/26 07:35:01;;;;;;;6.30;0.95;;;18.10;99.90;;;;;;4828552;29;38428;-58
2022/07/26 07:37:28;;;;;;;10.05;1.55;;;18.10;99.90;;;;;;4829214;29;39218;-58
2022/07/26 07:39:56;;;;;;;9.30;1.27;;;18.20;99.90;;;;;;4829170;29;38735;-58
2022/07/26 07:42:23;;;;;;;9.77;1.33;;;18.20;99.90;;;;;;4828402;29;35384;-67
2022/07/26 07:44:50;;;;;;;6.68;1.15;;;18.20;99.90;;;;;;4829260;29;38543;-67
2022/07/26 07:47:18;;;;;;;10.18;2.03;;;18.30;99.90;;;;;;4829030;29;38782;-66
2022/07/26 07:49:45;;;;;;;7.32;1.15;;;18.30;99.90;;;;;;4829920;29;36858;-66
2022/07/26 07:52:14;;;;;;;5.32;1.08;;;18.20;99.90;;;;;;4829216;29;36363;-67
2022/07/26 07:54:41;;;;;;;5.18;1.08;;;18.10;99.90;;;;;;4828426;29;37521;-66
2022/07/26 07:57:08;;;;;;;7.35;1.30;;;18.00;99.90;;;;;;4828319;29;38854;-66
2022/07/26 07:59:36;;;;;;;7.80;1.58;;;18.10;99.90;;;;;;4829743;29;37554;-66
2022/07/26 08:02:03;;;;;;;5.28;1.38;;;18.10;99.90;;;;;;4829526;29;36179;-58
2022/07/26 08:04:30;;;;;;;8.68;1.50;;;18.10;99.90;;;;;;4830086;29;37460;-65
2022/07/26 08:06:58;;;;;;;6.88;1.20;;;18.10;99.90;;;;;;4828886;29;38390;-58
2022/07/26 08:09:26;;;;;;;4.65;0.80;;;18.20;99.90;;;;;;4828941;29;38674;-66
2022/07/26 08:11:54;;;;;;;8.70;1.58;;;18.20;99.90;;;;;;4830144;29;37147;-66
2022/07/26 08:14:21;;;;;;;6.25;1.48;;;18.20;99.90;;;;;;4828642;29;36198;-66
2022/07/26 08:16:48;;;;;;;4.63;0.90;;;18.20;99.50;;;;;;4828069;29;38377;-58
2022/07/26 08:19:16;;;;;;;9.15;1.98;;;18.30;99.90;;;;;;4829257;29;36920;-58
2022/07/26 08:21:44;;;;;;;4.55;0.88;;;18.30;99.70;;;;;;4828958;29;36003;-66
2022/07/26 08:24:12;;;;;;;5.75;1.15;;;18.30;99.60;;;;;;4829160;29;37845;-66
2022/07/26 08:26:40;;;;;;;6.22;1.38;;;18.30;99.50;;;;;;4829558;29;37802;-65
2022/07/26 08:29:08;;;;;;;5.38;1.00;;;18.40;99.10;;;;;;4826654;29;37741;-58
2022/07/26 08:31:35;;;;;;;6.30;1.13;;;18.40;98.90;;;;;;4828197;29;36654;-66
2022/07/26 08:34:02;;;;;;;9.73;1.95;;;18.50;99.00;;;;;;4832695;29;37358;-66
2022/07/26 08:36:30;;;;;;;8.95;1.92;;;18.50;99.10;;;;;;4833313;29;38232;-66
2022/07/26 08:38:57;;;;;;;7.22;1.52;;;18.50;99.00;;;;;;4832754;29;37573;-58
2022/07/26 08:41:24;;;;;;;9.32;1.33;;;18.50;98.90;;;;;;4833373;29;38846;-66
2022/07/26 08:43:53;;;;;;;9.82;1.95;;;18.40;99.00;;;;;;4832229;29;37625;-66
2022/07/26 08:46:23;;;;;;;6.45;1.38;;;18.40;98.90;;;;;;4829485;29;37988;-58
2022/07/26 08:48:50;;;;;;;7.43;1.33;;;18.50;98.80;;;;;;4831033;29;37981;-58
2022/07/26 08:51:20;;;;;;;6.18;1.20;;;18.50;98.60;;;;;;4830521;29;36792;-58
2022/07/26 08:53:48;;;;;;;8.82;1.35;;;18.60;98.30;;;;;;4837630;29;38034;-66
2022/07/26 08:56:15;;;;;;;6.68;1.60;;;18.60;98.00;;;;;;4838899;29;37895;-58
2022/07/26 08:58:42;;;;;;;12.77;2.67;;;18.50;98.10;;;;;;4838277;29;36458;-66
2022/07/26 09:01:12;;;;;;;12.82;2.03;;;18.50;98.20;;;;;;4839340;29;36778;-66
2022/07/26 09:03:40;;;;;;;8.63;1.73;;;18.40;98.40;;;;;;4839757;29;38094;-66
2022/07/26 09:06:16;;;;;;;6.50;1.60;;;18.30;98.70;;;;;;4839315;29;38542;-66
2022/07/26 09:08:44;;;;;;;8.02;1.98;;;18.30;98.90;;;;;;4839460;29;39193;-65
2022/07/26 09:11:29;;;;;;;8.90;2.28;;;18.30;98.90;;;;;;4840486;29;36689;-66
2022/07/26 09:13:59;;;;;;;16.55;3.10;;;18.30;98.90;;;;;;4839461;29;35351;-66
2022/07/26 09:16:29;;;;;;;8.77;1.85;;;18.30;98.70;;;;;;4840586;29;38238;-65
2022/07/26 09:19:08;;;;;;;10.20;2.60;;;18.20;98.50;;;;;;4840960;29;38503;-66
2022/07/26 09:21:36;;;;;;;9.55;2.00;;;18.20;98.50;;;;;;4839631;29;37115;-66
2022/07/26 09:24:04;;;;;;;11.88;2.47;;;18.10;98.50;;;;;;4840868;29;37319;-58
2022/07/26 09:26:31;;;;;;;11.82;2.80;;;18.10;98.60;;;;;;4838848;29;39551;-58
2022/07/26 09:29:07;;;;;;;12.07;2.17;;;18.10;98.70;;;;;;4829837;29;39353;-58
2022/07/26 09:31:36;;;;;;;13.73;2.50;;;18.20;98.90;;;;;;4828497;29;37170;-58
2022/07/26 09:34:05;;;;;;;17.52;3.22;;;18.30;98.60;;;;;;4831865;29;37445;-66
2022/07/26 09:36:33;;;;;;;10.60;2.20;;;18.30;98.30;;;;;;4832539;29;36957;-58
2022/07/26 09:39:02;;;;;;;8.98;2.17;;;18.30;98.00;;;;;;4831797;29;36484;-58
2022/07/26 09:41:33;;;;;;;10.50;1.98;;;18.20;97.90;;;;;;4830881;29;36506;-58
2022/07/26 09:44:04;;;;;;;13.20;2.25;;;18.30;97.90;;;;;;4832965;29;37553;-66
2022/07/26 09:46:34;;;;;;;10.60;2.40;;;18.30;97.90;;;;;;4831362;29;36771;-67
2022/07/26 09:49:18;;;;;;;11.48;2.00;;;18.30;98.00;;;;;;4831883;29;38153;-66
2022/07/26 09:51:47;;;;;;;24.92;3.13;;;18.30;97.10;;;;;;4830125;29;36913;-66
2022/07/26 09:54:18;;;;;;;10.60;1.83;;;18.30;97.20;;;;;;4832114;29;37959;-66
2022/07/26 09:56:47;;;;;;;10.50;2.08;;;18.30;96.80;;;;;;4832377;29;38723;-58
2022/07/26 09:59:16;;;;;;;13.52;2.55;;;18.30;96.90;;;;;;4830596;29;38598;-58
2022/07/26 10:01:44;;;;;;;9.13;1.92;;;18.40;96.90;;;;;;4832161;29;35495;-58
2022/07/26 10:04:14;;;;;;;10.35;1.85;;;18.50;96.70;;;;;;4832350;29;38356;-60
2022/07/26 10:06:42;;;;;;;13.25;2.78;;;18.70;96.50;;;;;;4830739;29;37943;-60
2022/07/26 10:09:11;;;;;;;9.63;1.80;;;18.80;96.50;;;;;;4832093;29;37798;-66
2022/07/26 10:11:42;;;;;;;10.10;2.30;;;18.90;96.00;;;;;;4831312;29;36391;-66
2022/07/26 10:14:36;;;;;;;7.22;1.67;;;19.00;95.90;;;;;;4831021;29;36418;-60
2022/07/26 10:17:45;;;;;;;13.55;2.00;;;19.00;95.30;;;;;;4831054;29;40212;-61
2022/07/26 10:20:44;;;;;;;7.82;1.85;;;19.00;94.90;;;;;;4835038;29;37714;-60
2022/07/26 10:23:33;;;;;;;7.20;1.30;;;19.10;93.60;;;;;;4832411;29;35319;-60
2022/07/26 10:26:01;;;;;;;11.40;2.00;;;19.10;93.50;;;;;;4834932;29;36330;-60
2022/07/26 10:28:31;;;;;;;9.07;2.08;;;19.20;94.00;;;;;;4834445;29;38430;-60
2022/07/26 10:31:30;;;;;;;9.73;2.25;;;19.30;94.00;;;;;;4834455;29;37459;-60
2022/07/26 10:34:00;;;;;;;9.35;2.45;;;19.50;93.00;;;;;;4832364;29;35474;-66
2022/07/26 10:36:35;;;;;;;14.18;2.58;;;19.50;93.50;;;;;;4835135;29;37978;-67
2022/07/26 10:39:09;;;;;;;8.57;1.48;;;19.60;92.80;;;;;;4833284;29;38868;-61
2022/07/26 10:41:42;;;;;;;11.43;1.73;;;19.60;92.20;;;;;;4834973;29;37477;-61
2022/07/26 10:44:18;;;;;;;6.65;1.83;;;19.70;92.30;;;;;;4834279;29;37289;-67
2022/07/26 10:47:14;;;;;;;5.60;1.23;;;19.90;91.00;;;;;;4834666;29;37623;-67
2022/07/26 10:49:44;;;;;;;8.35;1.58;;;20.10;90.90;;;;;;4824355;29;39452;-67
2022/07/26 10:52:24;;;;;;;6.10;1.30;;;20.20;90.60;;;;;;4832431;29;38238;-67
2022/07/26 10:55:18;;;;;;;8.15;1.20;;;20.40;90.00;;;;;;4833397;29;36063;-67
2022/07/26 10:57:47;;;;;;;6.68;1.35;;;20.50;87.10;;;;;;4833573;29;37634;-66
2022/07/26 11:00:18;;;;;;;7.82;1.48;;;20.50;88.80;;;;;;4832258;29;38271;-66
2022/07/26 11:02:49;;;;;;;7.18;1.70;;;20.60;87.90;;;;;;4833527;29;38588;-67
2022/07/26 11:05:18;;;;;;;6.13;1.38;;;20.60;87.40;;;;;;4834220;29;35387;-67
2022/07/26 11:07:56;;;;;;;7.80;1.50;;;20.60;86.90;;;;;;4833777;29;36393;-66
2022/07/26 11:10:25;;;;;;;6.30;1.60;;;20.60;87.20;;;;;;4832157;29;39267;-66
2022/07/26 11:13:11;;;;;;;14.65;1.88;;;20.80;86.40;;;;;;4833847;29;37966;-66
2022/07/26 11:15:40;;;;;;;7.78;1.35;;;20.80;83.10;;;;;;4835226;29;38505;-66
2022/07/26 11:18:21;;;;;;;9.05;1.73;;;20.70;84.00;;;;;;4834766;29;38706;-67
2022/07/26 11:20:52;;;;;;;8.98;1.30;;;20.80;83.80;;;;;;4833233;29;38010;-66
2022/07/26 11:23:39;;;;;;;5.80;1.20;;;21.00;83.40;;;;;;4833075;29;37699;-67
2022/07/26 11:26:13;;;;;;;9.63;1.58;;;21.10;81.80;;;;;;4835012;29;36798;-67
2022/07/26 11:28:47;;;;;;;;;;;21.00;81.50;;;;;;4834221;29;37041;-64
2022/07/26 11:31:14;;;;;;;;;;;20.90;78.10;;;;;;4833741;29;38184;-65
2022/07/26 11:33:43;;;;;;;6.80;1.42;;;20.80;80.70;;;;;;4834830;29;36954;-66
2022/07/26 11:36:11;;;;;;;8.15;1.42;;;20.70;83.00;;;;;;4832981;29;37760;-66
2022/07/26 11:38:51;;;;;;;9.68;1.20;;;20.60;82.40;;;;;;4833246;29;37477;-67
2022/07/26 11:41:22;;;;;;;4.82;0.85;;;20.50;81.00;;;;;;4832094;29;38918;-66
2022/07/26 11:43:51;;;;;;;5.35;1.33;;;20.40;81.80;;;;;;4832031;29;37703;-66
2022/07/26 11:46:20;;;;;;;6.82;1.10;;;20.40;81.50;;;;;;4832810;29;36788;-66
2022/07/26 11:48:48;;;;;;;5.55;0.90;;;20.40;82.70;;;;;;4834040;29;37796;-67
2022/07/26 11:51:17;;;;;;;7.95;1.40;;;20.50;82.70;;;;;;4832430;29;39419;-67
2022/07/26 11:53:45;;;;;;;8.13;1.35;;;20.50;82.10;;;;;;4833598;29;39517;-67
2022/07/26 11:56:16;;;;;;;8.48;1.50;;;20.50;81.90;;;;;;4833088;29;37305;-67
2022/07/26 11:58:44;;;;;;;6.40;0.95;;;20.40;81.50;;;;;;4833514;29;37803;-67
2022/07/26 12:01:14;;;;;;;7.25;1.00;;;20.40;82.20;;;;;;4831780;29;39063;-66
2022/07/26 12:03:43;;;;;;;6.45;1.05;;;20.40;82.10;;;;;;4832837;29;40789;-66
2022/07/26 12:06:13;;;;;;;4.90;1.17;;;20.40;80.60;;;;;;4834115;29;36456;-66
2022/07/26 12:08:42;;;;;;;6.00;1.10;;;20.40;80.30;;;;;;4833307;29;37729;-66
2022/07/26 12:11:10;;;;;;;6.22;1.10;;;20.40;79.80;;;;;;4834221;29;39544;-66
2022/07/26 12:13:54;;;;;;;8.63;1.13;;;20.40;79.30;;;;;;4831904;29;37659;-66
2022/07/26 12:16:38;;;;;;;5.30;1.25;;;20.50;78.90;;;;;;4833052;29;36292;-66
2022/07/26 12:19:07;;;;;;;7.30;1.30;;;20.60;79.70;;;;;;4834495;29;38697;-65
2022/07/26 12:21:42;;;;;;;7.43;1.40;;;20.60;80.50;;;;;;4834202;29;39609;-65
2022/07/26 12:24:11;;;;;;;6.05;1.33;;;20.60;79.60;;;;;;4832385;29;34871;-65
2022/07/26 12:26:39;;;;;;;7.25;1.58;;;20.60;81.20;;;;;;4833431;29;35462;-66
2022/07/26 12:29:26;;;;;;;9.23;1.30;;;20.50;81.00;;;;;;4831743;29;39251;-66
2022/07/26 12:32:04;;;;;;;7.45;1.25;;;20.50;81.60;;;;;;4832487;29;40063;-65
2022/07/26 12:34:32;;;;;;;7.05;1.45;;;20.40;81.10;;;;;;4832489;29;39236;-65
2022/07/26 12:37:14;;;;;;;6.47;1.33;;;20.40;81.60;;;;;;4832161;29;35321;-65
2022/07/26 12:39:43;;;;;;;8.98;1.42;;;20.30;80.40;;;;;;4833728;29;37655;-65
2022/07/26 12:42:28;;;;;;;6.30;1.15;;;20.30;81.40;;;;;;4831299;29;38142;-65
2022/07/26 12:44:57;;;;;;;8.65;1.55;;;20.30;83.90;;;;;;4833057;29;38475;-65
2022/07/26 12:47:25;;;;;;;8.00;1.65;;;20.40;82.40;;;;;;4832182;29;37552;-64
2022/07/26 12:49:53;;;;;;;6.70;1.10;;;20.50;81.80;;;;;;4833205;29;37365;-66
2022/07/26 12:52:23;;;;;;;6.18;1.30;;;20.50;81.60;;;;;;4830830;29;38340;-65
2022/07/26 13:13:03;;;;;;;8.10;1.35;;;19.90;84.60;;;;;;5876197;23;20024;-60
2022/07/26 13:15:30;;;;;;;10.07;2.08;;;19.90;85.20;;;;;;4834915;29;36311;-60
2022/07/26 13:17:58;;;;;;;5.65;1.02;;;19.90;84.80;;;;;;4834526;29;37191;-60